createdAt,value
2022-10-17T00:02:21.000Z,9.60
2022-10-17T00:12:21.000Z,9.30
2022-10-17T00:32:22.000Z,11.60
2022-10-17T00:42:22.000Z,11.80
2022-10-17T00:52:23.000Z,13.00
2022-10-17T01:02:23.000Z,12.20
2022-10-17T01:12:23.000Z,12.50
2022-10-17T01:22:24.000Z,11.70
2022-10-17T01:32:24.000Z,11.70
2022-10-17T01:42:25.000Z,9.10
2022-10-17T02:02:25.000Z,8.70
2022-10-17T02:12:26.000Z,8.10
2022-10-17T02:22:26.000Z,7.90
2022-10-17T02:32:26.000Z,8.10
2022-10-17T02:42:27.000Z,8.10
2022-10-17T02:52:27.000Z,8.40
2022-10-17T03:02:27.000Z,8.40
2022-10-17T03:12:28.000Z,8.20
2022-10-17T03:32:28.000Z,7.80
2022-10-17T03:42:29.000Z,9.60
2022-10-17T03:52:29.000Z,10.20
2022-10-17T04:02:29.000Z,10.00
2022-10-17T04:12:30.000Z,9.40
2022-10-17T04:22:30.000Z,8.70
2022-10-17T04:32:31.000Z,8.00
2022-10-17T04:42:31.000Z,7.20
2022-10-17T05:02:32.000Z,7.20
2022-10-17T05:12:32.000Z,7.50
2022-10-17T05:22:33.000Z,7.00
2022-10-17T05:32:33.000Z,6.90
2022-10-17T05:42:34.000Z,7.70
2022-10-17T05:52:34.000Z,7.20
2022-10-17T06:02:34.000Z,6.40
2022-10-17T06:12:35.000Z,6.00
2022-10-17T06:32:35.000Z,5.60
2022-10-17T06:42:36.000Z,5.60
2022-10-17T06:52:36.000Z,7.20
2022-10-17T07:02:36.000Z,5.30
2022-10-17T07:12:37.000Z,5.20
2022-10-17T07:22:37.000Z,5.40
2022-10-17T07:32:37.000Z,4.80
2022-10-17T07:42:38.000Z,4.80
2022-10-17T08:02:38.000Z,5.20
2022-10-17T08:12:38.000Z,5.20
2022-10-17T08:22:38.000Z,4.60
2022-10-17T08:52:56.000Z,5.40
2022-10-17T08:52:56.000Z,4.50
2022-10-17T09:02:56.000Z,4.70
2022-10-17T09:12:56.000Z,4.50
2022-10-17T09:22:56.000Z,4.40
2022-10-17T09:32:56.000Z,4.80
2022-10-17T09:42:56.000Z,4.70
2022-10-17T09:52:55.000Z,4.40
2022-10-17T13:06:29.000Z,3.70
2022-10-17T13:06:29.000Z,3.90
2022-10-17T13:16:29.000Z,3.70
2022-10-17T13:26:29.000Z,4.10
2022-10-17T13:46:47.000Z,4.00
2022-10-17T13:46:47.000Z,3.90
2022-10-17T13:56:47.000Z,3.90
2022-10-17T14:06:46.000Z,3.00
2022-10-17T14:16:46.000Z,4.60
2022-10-17T14:26:46.000Z,3.80
2022-10-17T14:36:46.000Z,3.60
2022-10-17T14:46:46.000Z,4.00
2022-10-17T14:56:46.000Z,4.40
2022-10-17T15:16:46.000Z,3.90
2022-10-17T16:02:37.000Z,6.80
2022-10-17T16:17:54.000Z,17.70
2022-10-17T16:17:54.000Z,8.40
2022-10-17T16:27:54.000Z,7.50
2022-10-17T16:37:54.000Z,7.00
2022-10-17T16:47:55.000Z,6.80
2022-10-17T16:57:55.000Z,7.70
2022-10-17T17:07:55.000Z,7.00
2022-10-17T17:17:55.000Z,8.10
2022-10-17T17:27:56.000Z,7.00
2022-10-17T17:47:57.000Z,7.40
2022-10-17T17:57:57.000Z,7.70
2022-10-17T18:07:57.000Z,7.10
2022-10-17T18:17:58.000Z,7.80
2022-10-17T18:27:58.000Z,8.20
2022-10-17T18:37:59.000Z,7.40
2022-10-17T18:47:59.000Z,7.50
2022-10-17T18:58:00.000Z,9.50
2022-10-17T19:18:01.000Z,9.60
2022-10-17T19:28:01.000Z,9.30
2022-10-17T19:38:02.000Z,10.20
2022-10-17T19:48:03.000Z,9.50
2022-10-17T19:58:03.000Z,10.40
2022-10-17T20:08:04.000Z,9.30
2022-10-17T20:18:05.000Z,10.40
2022-10-17T20:28:05.000Z,8.10
2022-10-17T20:48:07.000Z,8.00
2022-10-17T20:58:08.000Z,10.50
2022-10-17T21:08:08.000Z,8.20
2022-10-17T21:18:09.000Z,8.70
2022-10-17T21:28:10.000Z,8.10
2022-10-17T21:38:11.000Z,9.20
2022-10-17T21:48:11.000Z,7.60
2022-10-17T21:58:12.000Z,8.20
2022-10-17T22:18:14.000Z,8.80
2022-10-17T22:28:15.000Z,8.20
2022-10-17T22:38:15.000Z,7.40
2022-10-17T22:48:16.000Z,8.30
2022-10-17T22:58:17.000Z,9.00
2022-10-17T23:08:17.000Z,8.70
2022-10-17T23:18:18.000Z,8.10
2022-10-17T23:28:19.000Z,8.50
2022-10-17T23:48:21.000Z,9.50
2022-10-17T23:58:21.000Z,8.40
